Flight Track Log - Related Links

Times and Time Zones

All times are in EDT time to prevent confusion due to time zone crossing. See the FLG4160 flight status page for this flight to view local times or setup timezone preferences in your user account.

Time Position Orientation Groundspeed Altitude Reporting Facility
EDT Latitude Longitude Course Direction KTS MPH feet Rate Location/Type
Sun 06:20:53 PM 36.1500 -86.6667 26° Northeast 145 167 1,200  Level Nashville TRACON
Sun 06:21:41 PM 36.1833 -86.6667 360° North 162 186 2,400 1,944 Climbing Nashville TRACON
Sun 06:22:41 PM 36.2333 -86.6333 28° Northeast 221 254 4,700 2,400 Climbing Nashville TRACON
Sun 06:23:00 PM 36.3825 -86.5535 20° North  Level FlightAware Approximate
Sun 06:23:41 PM 36.3000 -86.6000 22° Northeast 286 329 7,200  Level Nashville TRACON
Sun 06:23:58 PM 36.3164 -86.5992 North 278 320 8,000 2,805 Climbing Memphis Center
Sun 06:24:00 PM 36.4706 -86.5134 20° North  Level FlightAware Approximate
Sun 06:24:58 PM 36.3903 -86.5622 22° Northeast 302 348 10,800  Level Memphis Center
Sun 06:25:00 PM 36.5579 -86.4710 22° Northeast  Level FlightAware Approximate
Sun 06:25:58 PM 36.4767 -86.5244 19° North 308 354 12,300  Level Memphis Center
Sun 06:26:00 PM 36.6427 -86.4211 26° Northeast  Level FlightAware Approximate
Sun 06:26:58 PM 36.5711 -86.4789 21° North 344 396 14,500  Level Memphis Center
Sun 06:27:58 PM 36.6533 -86.4386 21° North 354 407 16,200 1,750 Climbing Memphis Center
Sun 06:28:58 PM 36.7536 -86.3872 22° Northeast 368 423 18,000 1,600 Climbing Memphis Center
Sun 06:29:58 PM 36.8500 -86.3383 22° Northeast 375 432 19,400 1,450 Climbing Memphis Center
Sun 06:30:58 PM 36.9525 -86.2864 22° Northeast 380 437 20,900 608 Climbing Memphis Center
Sun 06:32:36 PM 37.1278 -86.1981 22° Northeast 409 471 21,000 38 Climbing Indianapolis Center
Sun 06:33:38 PM 37.2339 -86.1431 22° Northeast 409 471 21,000  Level Indianapolis Center
Sun 06:34:40 PM 37.3356 -86.0803 26° Northeast 404 465 21,000  Level Indianapolis Center
Sun 06:35:42 PM 37.4378 -86.0133 27° Northeast 408 470 21,000  Level Indianapolis Center
Sun 06:36:44 PM 37.5650 -85.9592 19° North 408 470 21,000  Level Indianapolis Center
Sun 06:37:46 PM 37.6564 -85.9194 19° North 410 472 21,000  Level Indianapolis Center
Sun 06:38:48 PM 37.7847 -85.8614 20° North 407 468 21,000  Level Indianapolis Center
Sun 06:39:50 PM 37.8919 -85.8150 19° North 407 468 21,000  Level Indianapolis Center
Sun 06:40:52 PM 37.9983 -85.7672 19° North 406 467 21,000  Level Indianapolis Center
Sun 06:41:54 PM 38.1044 -85.7186 20° North 405 466 21,000 -774 Level Indianapolis Center
Sun 06:42:56 PM 38.2111 -85.6711 19° North 405 466 19,400 -1,548 Descending Indianapolis Center
Sun 06:43:58 PM 38.3158 -85.6239 19° North 400 460 17,800 -1,887 Descending Indianapolis Center
Sun 06:45:00 PM 38.4269 -85.5725 20° North 353 406 15,500 -2,032 Descending Indianapolis Center
Sun 06:46:02 PM 38.5203 -85.5308 19° North 353 406 13,600 -1,645 Descending Indianapolis Center
Sun 06:47:04 PM 38.6097 -85.4897 20° North 343 395 12,100 -1,258 Descending Indianapolis Center
Sun 06:48:06 PM 38.6931 -85.4497 21° North 325 374 11,000 -912 Descending Indianapolis Center
Sun 06:49:09 PM 38.7183 -85.3469 72° East 309 356 10,200 -864 Descending Indianapolis Center
Sun 06:50:11 PM 38.7269 -85.2481 84° East 285 328 9,200 -968 Descending Indianapolis Center
Sun 06:51:13 PM 38.7181 -85.1478 96° East 282 325 8,200 -987 Descending Indianapolis Center
Sun 06:52:49 PM 38.7167 -84.9833 91° East 269 310 6,600 -1,016 Descending Cincinnati TRACON
Sun 06:53:17 PM 38.7233 -84.9361 80° East 273 314 6,100 -600 Descending Indianapolis Center
Sun 06:54:19 PM 38.7428 -84.8411 75° East 268 308 5,700 -874 Descending Indianapolis Center
Sun 06:56:43 PM 38.8167 -84.6667 61° Northeast 221 254 3,100 -794 Descending Cincinnati TRACON
Sun 06:57:43 PM 38.8667 -84.6667 360° North 171 197 3,000 -50 Descending Cincinnati TRACON
Sun 06:58:43 PM 38.9167 -84.6667 360° North 170 196 3,000 -381 Level Cincinnati TRACON
Sun 06:59:49 PM 38.9667 -84.6667 360° North 173 199 2,200 -700 Descending Cincinnati TRACON
Sun 07:00:43 PM 39.0000 -84.6667 360° North 140 161 1,600 -667 Descending Cincinnati TRACON

Login

Don't have an account? Register now (free) for customized features, flight alerts, and more!